sensor_id;sensor_type;location;lat;lon;timestamp;P1;durP1;ratioP1;P2;durP2;ratioP2
18320;SDS011;54904;54.350;18.664;2023-01-15T00:00:00;11.40;;;5.27;;
18320;SDS011;54904;54.350;18.664;2023-01-15T00:02:30;10.13;;;4.70;;
18320;SDS011;54904;54.350;18.664;2023-01-15T00:04:57;14.57;;;4.43;;
18320;SDS011;54904;54.350;18.664;2023-01-15T00:07:27;12.23;;;4.67;;
18320;SDS011;54904;54.350;18.664;2023-01-15T00:09:54;14.53;;;5.30;;
18320;SDS011;54904;54.350;18.664;2023-01-15T00:12:23;10.57;;;4.53;;
18320;SDS011;54904;54.350;18.664;2023-01-15T00:14:50;10.43;;;4.50;;
18320;SDS011;54904;54.350;18.664;2023-01-15T00:17:17;8.63;;;4.53;;
18320;SDS011;54904;54.350;18.664;2023-01-15T00:19:45;11.33;;;4.60;;
18320;SDS011;54904;54.350;18.664;2023-01-15T00:22:12;10.60;;;4.17;;
18320;SDS011;54904;54.350;18.664;2023-01-15T00:24:39;10.07;;;4.27;;
18320;SDS011;54904;54.350;18.664;2023-01-15T00:27:31;8.83;;;4.07;;
18320;SDS011;54904;54.350;18.664;2023-01-15T00:30:04;8.17;;;4.33;;
18320;SDS011;54904;54.350;18.664;2023-01-15T00:32:35;13.90;;;4.87;;
18320;SDS011;54904;54.350;18.664;2023-01-15T00:35:03;10.17;;;3.90;;
18320;SDS011;54904;54.350;18.664;2023-01-15T00:37:30;11.00;;;4.50;;
18320;SDS011;54904;54.350;18.664;2023-01-15T00:39:57;10.53;;;4.10;;
18320;SDS011;54904;54.350;18.664;2023-01-15T00:42:24;9.53;;;4.30;;
18320;SDS011;54904;54.350;18.664;2023-01-15T00:44:53;8.27;;;3.70;;
18320;SDS011;54904;54.350;18.664;2023-01-15T00:47:20;7.17;;;3.83;;
18320;SDS011;54904;54.350;18.664;2023-01-15T00:49:47;9.57;;;4.10;;
18320;SDS011;54904;54.350;18.664;2023-01-15T00:52:15;6.60;;;3.73;;
18320;SDS011;54904;54.350;18.664;2023-01-15T00:54:43;6.73;;;3.60;;
18320;SDS011;54904;54.350;18.664;2023-01-15T00:57:10;9.83;;;4.10;;
18320;SDS011;54904;54.350;18.664;2023-01-15T00:59:37;9.40;;;4.23;;
18320;SDS011;54904;54.350;18.664;2023-01-15T01:02:05;8.20;;;4.00;;
18320;SDS011;54904;54.350;18.664;2023-01-15T01:04:33;8.07;;;3.50;;
18320;SDS011;54904;54.350;18.664;2023-01-15T01:07:01;10.80;;;4.53;;
18320;SDS011;54904;54.350;18.664;2023-01-15T01:09:28;8.13;;;3.93;;
18320;SDS011;54904;54.350;18.664;2023-01-15T01:11:55;9.67;;;4.47;;
18320;SDS011;54904;54.350;18.664;2023-01-15T01:14:22;8.73;;;3.60;;
18320;SDS011;54904;54.350;18.664;2023-01-15T01:16:49;9.80;;;3.90;;
18320;SDS011;54904;54.350;18.664;2023-01-15T01:19:20;8.37;;;3.93;;
18320;SDS011;54904;54.350;18.664;2023-01-15T01:21:48;7.90;;;3.80;;
18320;SDS011;54904;54.350;18.664;2023-01-15T01:24:17;9.07;;;3.90;;
18320;SDS011;54904;54.350;18.664;2023-01-15T01:26:45;11.13;;;4.10;;
18320;SDS011;54904;54.350;18.664;2023-01-15T01:29:14;11.73;;;3.90;;
18320;SDS011;54904;54.350;18.664;2023-01-15T01:31:42;8.30;;;3.70;;
18320;SDS011;54904;54.350;18.664;2023-01-15T01:34:10;9.97;;;3.57;;
18320;SDS011;54904;54.350;18.664;2023-01-15T01:36:40;7.83;;;3.40;;
18320;SDS011;54904;54.350;18.664;2023-01-15T01:39:11;8.83;;;2.80;;
18320;SDS011;54904;54.350;18.664;2023-01-15T01:41:40;6.17;;;2.90;;
18320;SDS011;54904;54.350;18.664;2023-01-15T01:47:08;7.50;;;3.57;;
18320;SDS011;54904;54.350;18.664;2023-01-15T01:49:40;6.83;;;3.00;;
18320;SDS011;54904;54.350;18.664;2023-01-15T01:52:11;6.97;;;3.03;;
18320;SDS011;54904;54.350;18.664;2023-01-15T01:54:41;5.33;;;2.97;;
18320;SDS011;54904;54.350;18.664;2023-01-15T01:57:12;8.20;;;3.20;;
18320;SDS011;54904;54.350;18.664;2023-01-15T01:59:41;5.10;;;2.67;;
18320;SDS011;54904;54.350;18.664;2023-01-15T02:02:09;5.83;;;2.50;;
18320;SDS011;54904;54.350;18.664;2023-01-15T02:04:36;4.97;;;2.70;;
18320;SDS011;54904;54.350;18.664;2023-01-15T02:07:04;5.53;;;2.47;;
18320;SDS011;54904;54.350;18.664;2023-01-15T02:09:34;3.80;;;2.43;;
18320;SDS011;54904;54.350;18.664;2023-01-15T02:12:03;4.23;;;2.40;;
18320;SDS011;54904;54.350;18.664;2023-01-15T02:14:37;4.33;;;2.20;;
18320;SDS011;54904;54.350;18.664;2023-01-15T02:17:12;7.67;;;2.43;;
18320;SDS011;54904;54.350;18.664;2023-01-15T02:19:44;7.03;;;2.67;;
18320;SDS011;54904;54.350;18.664;2023-01-15T02:22:18;4.60;;;2.50;;
18320;SDS011;54904;54.350;18.664;2023-01-15T02:24:58;4.03;;;2.30;;
18320;SDS011;54904;54.350;18.664;2023-01-15T02:27:34;5.20;;;2.60;;
18320;SDS011;54904;54.350;18.664;2023-01-15T02:30:05;3.37;;;2.10;;
18320;SDS011;54904;54.350;18.664;2023-01-15T02:32:49;3.40;;;2.27;;
18320;SDS011;54904;54.350;18.664;2023-01-15T02:35:21;2.20;;;1.93;;
18320;SDS011;54904;54.350;18.664;2023-01-15T02:37:51;9.33;;;2.37;;
18320;SDS011;54904;54.350;18.664;2023-01-15T02:40:22;4.13;;;2.10;;
18320;SDS011;54904;54.350;18.664;2023-01-15T02:42:53;5.17;;;2.17;;
18320;SDS011;54904;54.350;18.664;2023-01-15T02:45:23;3.57;;;1.83;;
18320;SDS011;54904;54.350;18.664;2023-01-15T02:47:59;2.53;;;1.73;;
18320;SDS011;54904;54.350;18.664;2023-01-15T02:50:31;3.07;;;2.20;;
18320;SDS011;54904;54.350;18.664;2023-01-15T02:53:04;4.43;;;1.73;;
18320;SDS011;54904;54.350;18.664;2023-01-15T02:55:36;5.80;;;2.40;;
18320;SDS011;54904;54.350;18.664;2023-01-15T02:58:09;6.53;;;1.93;;
18320;SDS011;54904;54.350;18.664;2023-01-15T03:00:42;2.40;;;2.20;;
18320;SDS011;54904;54.350;18.664;2023-01-15T03:03:13;10.37;;;2.47;;
18320;SDS011;54904;54.350;18.664;2023-01-15T03:05:47;4.53;;;2.13;;
18320;SDS011;54904;54.350;18.664;2023-01-15T03:08:19;4.17;;;1.83;;
18320;SDS011;54904;54.350;18.664;2023-01-15T03:10:47;4.90;;;2.50;;
18320;SDS011;54904;54.350;18.664;2023-01-15T03:13:22;5.43;;;2.27;;
18320;SDS011;54904;54.350;18.664;2023-01-15T03:15:57;3.67;;;2.20;;
18320;SDS011;54904;54.350;18.664;2023-01-15T03:18:48;4.00;;;2.17;;
18320;SDS011;54904;54.350;18.664;2023-01-15T03:21:20;5.43;;;2.10;;
18320;SDS011;54904;54.350;18.664;2023-01-15T03:23:52;4.23;;;2.03;;
18320;SDS011;54904;54.350;18.664;2023-01-15T03:26:24;1.70;;;1.60;;
18320;SDS011;54904;54.350;18.664;2023-01-15T03:28:54;3.60;;;2.30;;
18320;SDS011;54904;54.350;18.664;2023-01-15T03:31:23;4.07;;;2.10;;
18320;SDS011;54904;54.350;18.664;2023-01-15T03:33:50;3.77;;;2.20;;
18320;SDS011;54904;54.350;18.664;2023-01-15T03:36:19;3.87;;;2.20;;
18320;SDS011;54904;54.350;18.664;2023-01-15T03:38:48;3.13;;;2.00;;
18320;SDS011;54904;54.350;18.664;2023-01-15T03:41:49;3.27;;;1.70;;
18320;SDS011;54904;54.350;18.664;2023-01-15T03:44:29;3.83;;;2.20;;
18320;SDS011;54904;54.350;18.664;2023-01-15T03:47:07;3.57;;;1.90;;
18320;SDS011;54904;54.350;18.664;2023-01-15T03:49:49;3.13;;;1.80;;
18320;SDS011;54904;54.350;18.664;2023-01-15T03:52:29;2.83;;;1.70;;
18320;SDS011;54904;54.350;18.664;2023-01-15T03:55:05;4.43;;;2.07;;
18320;SDS011;54904;54.350;18.664;2023-01-15T03:57:39;10.37;;;2.07;;
18320;SDS011;54904;54.350;18.664;2023-01-15T04:00:14;5.93;;;1.97;;
18320;SDS011;54904;54.350;18.664;2023-01-15T04:02:50;3.67;;;2.23;;
18320;SDS011;54904;54.350;18.664;2023-01-15T04:05:19;2.83;;;1.83;;
18320;SDS011;54904;54.350;18.664;2023-01-15T04:07:47;6.30;;;1.97;;
18320;SDS011;54904;54.350;18.664;2023-01-15T04:10:17;2.10;;;1.63;;
18320;SDS011;54904;54.350;18.664;2023-01-15T04:12:46;2.33;;;1.50;;
18320;SDS011;54904;54.350;18.664;2023-01-15T04:15:15;4.37;;;1.77;;
18320;SDS011;54904;54.350;18.664;2023-01-15T04:17:43;2.93;;;1.67;;
18320;SDS011;54904;54.350;18.664;2023-01-15T04:20:12;1.67;;;1.30;;
18320;SDS011;54904;54.350;18.664;2023-01-15T04:22:41;4.30;;;1.70;;
18320;SDS011;54904;54.350;18.664;2023-01-15T04:25:09;1.30;;;1.20;;
18320;SDS011;54904;54.350;18.664;2023-01-15T04:27:36;4.37;;;1.73;;
18320;SDS011;54904;54.350;18.664;2023-01-15T04:30:03;2.10;;;1.43;;
18320;SDS011;54904;54.350;18.664;2023-01-15T04:32:33;2.37;;;1.60;;
18320;SDS011;54904;54.350;18.664;2023-01-15T04:35:00;3.37;;;1.77;;
18320;SDS011;54904;54.350;18.664;2023-01-15T04:37:27;3.50;;;1.40;;
18320;SDS011;54904;54.350;18.664;2023-01-15T04:39:54;2.53;;;1.60;;
18320;SDS011;54904;54.350;18.664;2023-01-15T04:42:21;1.60;;;1.50;;
18320;SDS011;54904;54.350;18.664;2023-01-15T04:45:06;2.43;;;1.50;;
18320;SDS011;54904;54.350;18.664;2023-01-15T04:47:35;2.80;;;1.50;;
18320;SDS011;54904;54.350;18.664;2023-01-15T04:50:03;2.90;;;1.53;;
18320;SDS011;54904;54.350;18.664;2023-01-15T04:52:30;5.20;;;1.87;;
18320;SDS011;54904;54.350;18.664;2023-01-15T04:54:57;2.60;;;1.67;;
18320;SDS011;54904;54.350;18.664;2023-01-15T04:57:24;5.20;;;2.40;;
18320;SDS011;54904;54.350;18.664;2023-01-15T04:59:51;4.20;;;1.43;;
18320;SDS011;54904;54.350;18.664;2023-01-15T05:02:18;2.03;;;1.60;;
18320;SDS011;54904;54.350;18.664;2023-01-15T05:04:47;3.47;;;1.60;;
18320;SDS011;54904;54.350;18.664;2023-01-15T05:07:14;2.10;;;1.33;;
18320;SDS011;54904;54.350;18.664;2023-01-15T05:09:42;2.43;;;1.30;;
18320;SDS011;54904;54.350;18.664;2023-01-15T05:12:09;1.90;;;1.40;;
18320;SDS011;54904;54.350;18.664;2023-01-15T05:14:36;2.40;;;1.33;;
18320;SDS011;54904;54.350;18.664;2023-01-15T05:17:03;2.07;;;1.30;;
18320;SDS011;54904;54.350;18.664;2023-01-15T05:19:30;3.90;;;1.43;;
18320;SDS011;54904;54.350;18.664;2023-01-15T05:21:59;3.53;;;1.57;;
18320;SDS011;54904;54.350;18.664;2023-01-15T05:24:26;3.93;;;1.60;;
18320;SDS011;54904;54.350;18.664;2023-01-15T05:26:53;1.47;;;1.27;;
18320;SDS011;54904;54.350;18.664;2023-01-15T05:29:22;2.10;;;1.40;;
18320;SDS011;54904;54.350;18.664;2023-01-15T05:31:49;4.27;;;1.67;;
18320;SDS011;54904;54.350;18.664;2023-01-15T05:34:16;1.60;;;1.10;;
18320;SDS011;54904;54.350;18.664;2023-01-15T05:36:43;2.23;;;1.43;;
18320;SDS011;54904;54.350;18.664;2023-01-15T05:39:12;2.03;;;1.30;;
18320;SDS011;54904;54.350;18.664;2023-01-15T05:41:39;2.17;;;1.33;;
18320;SDS011;54904;54.350;18.664;2023-01-15T05:44:16;2.23;;;1.57;;
18320;SDS011;54904;54.350;18.664;2023-01-15T05:46:45;5.70;;;1.57;;
18320;SDS011;54904;54.350;18.664;2023-01-15T05:49:14;2.40;;;1.40;;
18320;SDS011;54904;54.350;18.664;2023-01-15T05:51:43;1.80;;;1.57;;
18320;SDS011;54904;54.350;18.664;2023-01-15T05:54:12;1.37;;;1.20;;
18320;SDS011;54904;54.350;18.664;2023-01-15T05:56:41;1.40;;;1.10;;
18320;SDS011;54904;54.350;18.664;2023-01-15T05:59:10;2.53;;;1.17;;
18320;SDS011;54904;54.350;18.664;2023-01-15T06:01:38;2.30;;;1.47;;
18320;SDS011;54904;54.350;18.664;2023-01-15T06:04:05;1.83;;;1.20;;
18320;SDS011;54904;54.350;18.664;2023-01-15T06:06:33;2.87;;;1.20;;
18320;SDS011;54904;54.350;18.664;2023-01-15T06:09:01;2.80;;;1.90;;
18320;SDS011;54904;54.350;18.664;2023-01-15T06:11:30;2.03;;;1.40;;
18320;SDS011;54904;54.350;18.664;2023-01-15T06:13:58;2.13;;;1.30;;
18320;SDS011;54904;54.350;18.664;2023-01-15T06:16:25;2.70;;;1.50;;
18320;SDS011;54904;54.350;18.664;2023-01-15T06:18:52;2.30;;;1.70;;
18320;SDS011;54904;54.350;18.664;2023-01-15T06:21:19;1.57;;;1.30;;
18320;SDS011;54904;54.350;18.664;2023-01-15T06:23:47;3.17;;;1.73;;
18320;SDS011;54904;54.350;18.664;2023-01-15T06:26:14;2.63;;;1.90;;
18320;SDS011;54904;54.350;18.664;2023-01-15T06:28:44;2.90;;;1.50;;
18320;SDS011;54904;54.350;18.664;2023-01-15T06:31:12;3.07;;;1.63;;
18320;SDS011;54904;54.350;18.664;2023-01-15T06:33:41;2.20;;;1.50;;
18320;SDS011;54904;54.350;18.664;2023-01-15T06:36:09;3.20;;;1.50;;
18320;SDS011;54904;54.350;18.664;2023-01-15T06:38:38;2.70;;;1.40;;
18320;SDS011;54904;54.350;18.664;2023-01-15T06:41:06;1.63;;;1.20;;
18320;SDS011;54904;54.350;18.664;2023-01-15T06:43:53;1.40;;;1.30;;
18320;SDS011;54904;54.350;18.664;2023-01-15T06:46:38;1.93;;;1.43;;
18320;SDS011;54904;54.350;18.664;2023-01-15T06:49:25;3.17;;;1.77;;
18320;SDS011;54904;54.350;18.664;2023-01-15T06:51:52;2.40;;;1.40;;
18320;SDS011;54904;54.350;18.664;2023-01-15T06:54:19;1.97;;;1.73;;
18320;SDS011;54904;54.350;18.664;2023-01-15T06:56:47;2.07;;;1.43;;
18320;SDS011;54904;54.350;18.664;2023-01-15T06:59:15;2.47;;;1.63;;
18320;SDS011;54904;54.350;18.664;2023-01-15T07:01:43;2.10;;;1.70;;
18320;SDS011;54904;54.350;18.664;2023-01-15T07:04:10;1.53;;;1.30;;
18320;SDS011;54904;54.350;18.664;2023-01-15T07:06:37;2.23;;;1.57;;
18320;SDS011;54904;54.350;18.664;2023-01-15T07:09:04;2.40;;;1.30;;
18320;SDS011;54904;54.350;18.664;2023-01-15T07:11:31;1.87;;;1.13;;
18320;SDS011;54904;54.350;18.664;2023-01-15T07:13:59;1.60;;;1.37;;
18320;SDS011;54904;54.350;18.664;2023-01-15T07:16:32;1.77;;;1.30;;
18320;SDS011;54904;54.350;18.664;2023-01-15T07:19:00;1.23;;;1.13;;
18320;SDS011;54904;54.350;18.664;2023-01-15T07:21:28;1.50;;;1.20;;
18320;SDS011;54904;54.350;18.664;2023-01-15T07:23:57;1.73;;;1.23;;
18320;SDS011;54904;54.350;18.664;2023-01-15T07:26:25;1.47;;;1.30;;
18320;SDS011;54904;54.350;18.664;2023-01-15T07:28:52;1.90;;;1.80;;
18320;SDS011;54904;54.350;18.664;2023-01-15T07:31:19;2.27;;;1.70;;
18320;SDS011;54904;54.350;18.664;2023-01-15T07:33:48;1.60;;;1.50;;
18320;SDS011;54904;54.350;18.664;2023-01-15T07:36:15;2.10;;;1.63;;
18320;SDS011;54904;54.350;18.664;2023-01-15T07:38:42;2.50;;;2.17;;
18320;SDS011;54904;54.350;18.664;2023-01-15T07:41:09;2.70;;;2.10;;
18320;SDS011;54904;54.350;18.664;2023-01-15T07:43:54;2.60;;;1.87;;
18320;SDS011;54904;54.350;18.664;2023-01-15T07:46:38;1.33;;;1.20;;
18320;SDS011;54904;54.350;18.664;2023-01-15T07:49:36;1.33;;;1.23;;
18320;SDS011;54904;54.350;18.664;2023-01-15T07:52:13;1.67;;;1.40;;
18320;SDS011;54904;54.350;18.664;2023-01-15T07:54:41;2.50;;;1.30;;
18320;SDS011;54904;54.350;18.664;2023-01-15T07:57:08;2.37;;;1.40;;
18320;SDS011;54904;54.350;18.664;2023-01-15T07:59:37;1.17;;;1.00;;
18320;SDS011;54904;54.350;18.664;2023-01-15T08:02:04;1.47;;;1.00;;
18320;SDS011;54904;54.350;18.664;2023-01-15T08:04:31;1.43;;;1.33;;
18320;SDS011;54904;54.350;18.664;2023-01-15T08:07:00;1.90;;;1.10;;
18320;SDS011;54904;54.350;18.664;2023-01-15T08:09:27;1.17;;;1.07;;
18320;SDS011;54904;54.350;18.664;2023-01-15T08:11:57;1.43;;;1.20;;
18320;SDS011;54904;54.350;18.664;2023-01-15T08:14:42;1.97;;;1.40;;
18320;SDS011;54904;54.350;18.664;2023-01-15T08:17:28;1.40;;;1.10;;
18320;SDS011;54904;54.350;18.664;2023-01-15T08:20:01;1.03;;;0.90;;
18320;SDS011;54904;54.350;18.664;2023-01-15T08:22:31;0.73;;;0.60;;
18320;SDS011;54904;54.350;18.664;2023-01-15T08:25:01;0.50;;;0.50;;
18320;SDS011;54904;54.350;18.664;2023-01-15T08:27:28;0.97;;;0.53;;
18320;SDS011;54904;54.350;18.664;2023-01-15T08:29:58;0.60;;;0.60;;
18320;SDS011;54904;54.350;18.664;2023-01-15T08:32:25;0.50;;;0.50;;
18320;SDS011;54904;54.350;18.664;2023-01-15T08:34:52;0.70;;;0.70;;
18320;SDS011;54904;54.350;18.664;2023-01-15T08:37:19;0.80;;;0.80;;
18320;SDS011;54904;54.350;18.664;2023-01-15T08:39:48;0.77;;;0.77;;
18320;SDS011;54904;54.350;18.664;2023-01-15T08:42:17;0.60;;;0.60;;
18320;SDS011;54904;54.350;18.664;2023-01-15T08:44:44;1.10;;;0.90;;
18320;SDS011;54904;54.350;18.664;2023-01-15T08:47:12;1.07;;;1.00;;
18320;SDS011;54904;54.350;18.664;2023-01-15T08:49:39;1.77;;;1.00;;
18320;SDS011;54904;54.350;18.664;2023-01-15T08:52:06;1.17;;;0.97;;
18320;SDS011;54904;54.350;18.664;2023-01-15T08:54:34;0.70;;;0.70;;
18320;SDS011;54904;54.350;18.664;2023-01-15T08:57:03;1.10;;;1.00;;
18320;SDS011;54904;54.350;18.664;2023-01-15T08:59:30;1.17;;;0.97;;
18320;SDS011;54904;54.350;18.664;2023-01-15T09:01:57;1.40;;;1.00;;
18320;SDS011;54904;54.350;18.664;2023-01-15T09:04:24;0.93;;;0.90;;
18320;SDS011;54904;54.350;18.664;2023-01-15T09:07:04;1.33;;;1.10;;
18320;SDS011;54904;54.350;18.664;2023-01-15T09:09:32;1.30;;;1.10;;
18320;SDS011;54904;54.350;18.664;2023-01-15T09:11:59;1.40;;;1.30;;
18320;SDS011;54904;54.350;18.664;2023-01-15T09:14:28;2.13;;;1.30;;
18320;SDS011;54904;54.350;18.664;2023-01-15T09:16:56;2.20;;;1.40;;
18320;SDS011;54904;54.350;18.664;2023-01-15T09:19:23;1.80;;;1.00;;
18320;SDS011;54904;54.350;18.664;2023-01-15T09:21:51;2.23;;;1.20;;
18320;SDS011;54904;54.350;18.664;2023-01-15T09:24:18;1.30;;;1.17;;
18320;SDS011;54904;54.350;18.664;2023-01-15T09:26:46;1.70;;;1.43;;
18320;SDS011;54904;54.350;18.664;2023-01-15T09:29:17;2.53;;;1.77;;
18320;SDS011;54904;54.350;18.664;2023-01-15T09:31:48;1.97;;;1.50;;
18320;SDS011;54904;54.350;18.664;2023-01-15T09:34:15;2.67;;;1.47;;
18320;SDS011;54904;54.350;18.664;2023-01-15T09:36:43;1.23;;;1.17;;
18320;SDS011;54904;54.350;18.664;2023-01-15T09:39:10;1.30;;;1.20;;
18320;SDS011;54904;54.350;18.664;2023-01-15T09:41:45;1.73;;;1.27;;
18320;SDS011;54904;54.350;18.664;2023-01-15T09:44:36;2.30;;;1.50;;
18320;SDS011;54904;54.350;18.664;2023-01-15T09:47:13;1.67;;;1.57;;
18320;SDS011;54904;54.350;18.664;2023-01-15T09:49:56;1.40;;;1.20;;
18320;SDS011;54904;54.350;18.664;2023-01-15T09:52:52;1.40;;;1.30;;
18320;SDS011;54904;54.350;18.664;2023-01-15T09:55:45;1.20;;;1.10;;
18320;SDS011;54904;54.350;18.664;2023-01-15T09:58:15;1.57;;;0.90;;
18320;SDS011;54904;54.350;18.664;2023-01-15T10:00:46;1.20;;;0.90;;
18320;SDS011;54904;54.350;18.664;2023-01-15T10:03:22;1.20;;;0.90;;
18320;SDS011;54904;54.350;18.664;2023-01-15T10:05:57;0.73;;;0.73;;
18320;SDS011;54904;54.350;18.664;2023-01-15T10:08:31;1.33;;;1.00;;
18320;SDS011;54904;54.350;18.664;2023-01-15T10:11:02;2.20;;;1.40;;
18320;SDS011;54904;54.350;18.664;2023-01-15T10:13:34;1.20;;;1.10;;
18320;SDS011;54904;54.350;18.664;2023-01-15T10:16:06;1.80;;;1.50;;
18320;SDS011;54904;54.350;18.664;2023-01-15T10:18:38;1.83;;;1.23;;
18320;SDS011;54904;54.350;18.664;2023-01-15T10:21:09;2.17;;;1.93;;
18320;SDS011;54904;54.350;18.664;2023-01-15T10:23:48;1.57;;;1.47;;
18320;SDS011;54904;54.350;18.664;2023-01-15T10:26:30;1.70;;;1.60;;
18320;SDS011;54904;54.350;18.664;2023-01-15T10:29:04;3.43;;;2.13;;
18320;SDS011;54904;54.350;18.664;2023-01-15T10:31:47;1.90;;;1.50;;
18320;SDS011;54904;54.350;18.664;2023-01-15T10:37:20;2.50;;;1.70;;
18320;SDS011;54904;54.350;18.664;2023-01-15T10:40:02;1.47;;;1.37;;
18320;SDS011;54904;54.350;18.664;2023-01-15T10:42:49;2.00;;;1.53;;
18320;SDS011;54904;54.350;18.664;2023-01-15T10:45:23;2.00;;;1.80;;
18320;SDS011;54904;54.350;18.664;2023-01-15T10:47:53;1.90;;;1.70;;
18320;SDS011;54904;54.350;18.664;2023-01-15T10:50:27;1.57;;;1.43;;
18320;SDS011;54904;54.350;18.664;2023-01-15T10:53:02;2.13;;;1.30;;
18320;SDS011;54904;54.350;18.664;2023-01-15T10:55:34;1.33;;;1.23;;
18320;SDS011;54904;54.350;18.664;2023-01-15T10:58:10;2.03;;;1.60;;
18320;SDS011;54904;54.350;18.664;2023-01-15T11:00:39;2.17;;;1.50;;
18320;SDS011;54904;54.350;18.664;2023-01-15T11:03:11;1.30;;;1.20;;
18320;SDS011;54904;54.350;18.664;2023-01-15T11:05:43;1.07;;;1.07;;
18320;SDS011;54904;54.350;18.664;2023-01-15T11:08:13;3.20;;;1.57;;
18320;SDS011;54904;54.350;18.664;2023-01-15T11:10:47;1.50;;;1.40;;
18320;SDS011;54904;54.350;18.664;2023-01-15T11:13:16;1.30;;;1.10;;
18320;SDS011;54904;54.350;18.664;2023-01-15T11:16:05;2.23;;;1.47;;
18320;SDS011;54904;54.350;18.664;2023-01-15T11:18:56;2.70;;;1.77;;
18320;SDS011;54904;54.350;18.664;2023-01-15T11:21:46;1.40;;;1.30;;
18320;SDS011;54904;54.350;18.664;2023-01-15T11:24:15;1.50;;;1.40;;
18320;SDS011;54904;54.350;18.664;2023-01-15T11:26:44;2.63;;;1.60;;
18320;SDS011;54904;54.350;18.664;2023-01-15T11:29:14;1.40;;;1.30;;
18320;SDS011;54904;54.350;18.664;2023-01-15T11:31:46;1.60;;;1.50;;
18320;SDS011;54904;54.350;18.664;2023-01-15T11:34:16;1.63;;;1.50;;
18320;SDS011;54904;54.350;18.664;2023-01-15T11:36:46;2.67;;;1.50;;
18320;SDS011;54904;54.350;18.664;2023-01-15T11:39:23;1.37;;;1.27;;
18320;SDS011;54904;54.350;18.664;2023-01-15T11:41:57;2.23;;;1.50;;
18320;SDS011;54904;54.350;18.664;2023-01-15T11:44:49;1.70;;;1.40;;
18320;SDS011;54904;54.350;18.664;2023-01-15T11:47:35;1.10;;;1.10;;
18320;SDS011;54904;54.350;18.664;2023-01-15T11:50:19;2.80;;;1.70;;
18320;SDS011;54904;54.350;18.664;2023-01-15T11:53:05;2.27;;;1.60;;
18320;SDS011;54904;54.350;18.664;2023-01-15T11:55:39;1.40;;;1.30;;
18320;SDS011;54904;54.350;18.664;2023-01-15T11:58:15;1.60;;;1.50;;
18320;SDS011;54904;54.350;18.664;2023-01-15T12:00:42;3.27;;;2.10;;
18320;SDS011;54904;54.350;18.664;2023-01-15T12:03:15;3.00;;;2.50;;
18320;SDS011;54904;54.350;18.664;2023-01-15T12:05:45;5.20;;;3.20;;
18320;SDS011;54904;54.350;18.664;2023-01-15T12:08:21;9.33;;;4.20;;
18320;SDS011;54904;54.350;18.664;2023-01-15T12:11:00;12.57;;;5.47;;
18320;SDS011;54904;54.350;18.664;2023-01-15T12:13:40;12.33;;;5.73;;
18320;SDS011;54904;54.350;18.664;2023-01-15T12:16:14;9.20;;;4.70;;
18320;SDS011;54904;54.350;18.664;2023-01-15T12:18:51;7.17;;;3.60;;
18320;SDS011;54904;54.350;18.664;2023-01-15T12:21:33;4.70;;;3.00;;
18320;SDS011;54904;54.350;18.664;2023-01-15T12:27:10;3.77;;;2.20;;
18320;SDS011;54904;54.350;18.664;2023-01-15T12:29:56;2.90;;;1.67;;
18320;SDS011;54904;54.350;18.664;2023-01-15T12:32:27;2.30;;;1.73;;
18320;SDS011;54904;54.350;18.664;2023-01-15T12:35:02;1.87;;;1.60;;
18320;SDS011;54904;54.350;18.664;2023-01-15T12:37:33;2.20;;;1.77;;
18320;SDS011;54904;54.350;18.664;2023-01-15T12:40:14;2.40;;;1.83;;
18320;SDS011;54904;54.350;18.664;2023-01-15T12:42:48;3.77;;;1.80;;
18320;SDS011;54904;54.350;18.664;2023-01-15T12:45:44;1.53;;;1.43;;
18320;SDS011;54904;54.350;18.664;2023-01-15T12:48:15;3.50;;;1.80;;
18320;SDS011;54904;54.350;18.664;2023-01-15T12:50:47;2.47;;;2.27;;
18320;SDS011;54904;54.350;18.664;2023-01-15T12:53:18;2.83;;;2.10;;
18320;SDS011;54904;54.350;18.664;2023-01-15T12:55:49;3.37;;;2.27;;
18320;SDS011;54904;54.350;18.664;2023-01-15T12:58:27;3.37;;;1.97;;
18320;SDS011;54904;54.350;18.664;2023-01-15T13:01:03;3.07;;;1.97;;
18320;SDS011;54904;54.350;18.664;2023-01-15T13:03:43;2.07;;;1.77;;
18320;SDS011;54904;54.350;18.664;2023-01-15T13:06:17;3.13;;;1.90;;
18320;SDS011;54904;54.350;18.664;2023-01-15T13:08:48;2.30;;;1.97;;
18320;SDS011;54904;54.350;18.664;2023-01-15T13:11:23;3.07;;;2.40;;
18320;SDS011;54904;54.350;18.664;2023-01-15T13:13:50;4.27;;;2.37;;
18320;SDS011;54904;54.350;18.664;2023-01-15T13:16:26;3.67;;;2.60;;
18320;SDS011;54904;54.350;18.664;2023-01-15T13:19:16;3.10;;;2.03;;
18320;SDS011;54904;54.350;18.664;2023-01-15T13:21:54;2.87;;;2.27;;
18320;SDS011;54904;54.350;18.664;2023-01-15T13:30:14;2.70;;;2.00;;
18320;SDS011;54904;54.350;18.664;2023-01-15T13:32:52;2.87;;;2.10;;
18320;SDS011;54904;54.350;18.664;2023-01-15T13:35:26;2.70;;;2.20;;
18320;SDS011;54904;54.350;18.664;2023-01-15T13:37:56;2.63;;;2.43;;
18320;SDS011;54904;54.350;18.664;2023-01-15T13:40:28;4.07;;;2.70;;
18320;SDS011;54904;54.350;18.664;2023-01-15T13:43:00;2.60;;;2.20;;
18320;SDS011;54904;54.350;18.664;2023-01-15T13:45:32;3.07;;;2.20;;
18320;SDS011;54904;54.350;18.664;2023-01-15T13:48:03;2.53;;;2.10;;
18320;SDS011;54904;54.350;18.664;2023-01-15T13:50:34;3.03;;;2.13;;
18320;SDS011;54904;54.350;18.664;2023-01-15T13:53:06;3.60;;;2.20;;
18320;SDS011;54904;54.350;18.664;2023-01-15T13:55:42;3.80;;;2.03;;
18320;SDS011;54904;54.350;18.664;2023-01-15T13:58:18;2.40;;;2.10;;
18320;SDS011;54904;54.350;18.664;2023-01-15T14:00:59;2.70;;;2.13;;
18320;SDS011;54904;54.350;18.664;2023-01-15T14:03:31;3.17;;;2.50;;
18320;SDS011;54904;54.350;18.664;2023-01-15T14:05:59;3.03;;;2.70;;
18320;SDS011;54904;54.350;18.664;2023-01-15T14:08:35;3.53;;;2.43;;
18320;SDS011;54904;54.350;18.664;2023-01-15T14:11:04;5.97;;;2.77;;
18320;SDS011;54904;54.350;18.664;2023-01-15T14:13:56;3.97;;;2.80;;
18320;SDS011;54904;54.350;18.664;2023-01-15T14:16:40;2.53;;;2.23;;
18320;SDS011;54904;54.350;18.664;2023-01-15T14:19:25;5.70;;;2.90;;
18320;SDS011;54904;54.350;18.664;2023-01-15T14:22:07;4.73;;;2.50;;
18320;SDS011;54904;54.350;18.664;2023-01-15T14:24:52;4.10;;;2.43;;
18320;SDS011;54904;54.350;18.664;2023-01-15T14:27:47;3.23;;;2.17;;
18320;SDS011;54904;54.350;18.664;2023-01-15T14:30:38;4.67;;;2.80;;
18320;SDS011;54904;54.350;18.664;2023-01-15T14:33:28;5.03;;;2.73;;
18320;SDS011;54904;54.350;18.664;2023-01-15T14:36:07;4.87;;;3.10;;
18320;SDS011;54904;54.350;18.664;2023-01-15T14:38:36;3.10;;;2.20;;
18320;SDS011;54904;54.350;18.664;2023-01-15T14:41:13;2.27;;;2.07;;
18320;SDS011;54904;54.350;18.664;2023-01-15T14:43:40;3.00;;;1.77;;
18320;SDS011;54904;54.350;18.664;2023-01-15T14:46:18;3.03;;;1.80;;
18320;SDS011;54904;54.350;18.664;2023-01-15T14:48:51;2.53;;;1.43;;
18320;SDS011;54904;54.350;18.664;2023-01-15T14:51:21;1.60;;;1.50;;
18320;SDS011;54904;54.350;18.664;2023-01-15T14:53:52;1.50;;;1.40;;
18320;SDS011;54904;54.350;18.664;2023-01-15T14:56:22;1.50;;;1.40;;
18320;SDS011;54904;54.350;18.664;2023-01-15T14:58:55;3.37;;;2.57;;
18320;SDS011;54904;54.350;18.664;2023-01-15T15:01:31;3.30;;;1.77;;
18320;SDS011;54904;54.350;18.664;2023-01-15T15:04:18;2.17;;;1.77;;
18320;SDS011;54904;54.350;18.664;2023-01-15T15:06:51;2.87;;;1.87;;
18320;SDS011;54904;54.350;18.664;2023-01-15T15:09:25;2.67;;;1.60;;
18320;SDS011;54904;54.350;18.664;2023-01-15T15:11:57;3.93;;;1.83;;
18320;SDS011;54904;54.350;18.664;2023-01-15T15:14:45;3.90;;;1.97;;
18320;SDS011;54904;54.350;18.664;2023-01-15T15:17:19;4.43;;;2.10;;